Time;durP1;ratioP1;P1;durP2;ratioP2;P2;SDS_P1;SDS_P2;PMS_P1;PMS_P2;Temp;Humidity;BMP_temperature;BMP_pressure;BME280_temperature;BME280_humidity;BME280_pressure;Samples;Min_cycle;Max_cycle;Signal;HPM_P1;HPM_P2
2021/03/16 00:00:55;;;;;;;33.33;3.43;;;6.80;99.90;;;;;;5040593;28;20194;-80
2021/03/16 00:03:21;;;;;;;26.03;3.27;;;6.80;99.90;;;;;;5042985;28;20201;-81
2021/03/16 00:05:48;;;;;;;23.80;3.60;;;6.80;99.90;;;;;;5044421;28;20295;-79
2021/03/16 00:08:15;;;;;;;26.40;3.40;;;6.90;99.90;;;;;;5023280;28;20602;-79
2021/03/16 00:10:41;;;;;;;22.27;3.27;;;6.90;99.90;;;;;;5039022;28;20201;-79
2021/03/16 00:13:08;;;;;;;19.80;3.03;;;6.90;99.90;;;;;;5043459;28;20244;-82
2021/03/16 00:15:35;;;;;;;23.60;3.10;;;6.90;99.90;;;;;;5036946;28;20276;-81
2021/03/16 00:18:02;;;;;;;15.00;3.23;;;6.90;99.90;;;;;;5032640;28;20286;-80
2021/03/16 00:20:29;;;;;;;22.77;2.80;;;6.80;99.90;;;;;;5032330;28;20230;-82
2021/03/16 00:22:56;;;;;;;23.97;2.90;;;6.80;99.90;;;;;;5032371;28;20198;-79
2021/03/16 00:25:22;;;;;;;19.67;3.37;;;6.80;99.90;;;;;;5032461;28;20207;-79
2021/03/16 00:27:49;;;;;;;21.53;2.87;;;6.90;99.90;;;;;;5033104;28;20206;-81
2021/03/16 00:30:17;;;;;;;16.70;3.07;;;6.80;99.90;;;;;;5035751;28;20639;-80
2021/03/16 00:32:43;;;;;;;31.47;3.67;;;6.80;99.90;;;;;;5036084;28;20298;-79
2021/03/16 00:35:10;;;;;;;26.67;3.10;;;6.80;99.90;;;;;;5036039;28;20620;-80
2021/03/16 00:37:37;;;;;;;35.07;3.27;;;6.90;99.90;;;;;;5035930;28;20249;-81
2021/03/16 00:40:05;;;;;;;18.90;3.10;;;6.80;99.90;;;;;;5035999;28;20214;-82
2021/03/16 00:42:31;;;;;;;17.07;3.57;;;6.90;99.90;;;;;;5035648;28;20198;-81
2021/03/16 00:44:58;;;;;;;21.03;3.10;;;6.90;99.90;;;;;;5035592;28;20236;-80
2021/03/16 00:47:26;;;;;;;18.20;2.63;;;6.90;99.90;;;;;;5035885;28;20214;-81
2021/03/16 00:49:53;;;;;;;24.00;3.40;;;6.90;99.90;;;;;;5035189;28;20317;-80
2021/03/16 00:52:20;;;;;;;25.60;3.07;;;6.90;99.90;;;;;;5035654;28;20286;-80
2021/03/16 00:54:46;;;;;;;20.40;3.20;;;6.90;99.90;;;;;;5035451;28;20672;-80
2021/03/16 00:57:12;;;;;;;19.10;2.97;;;6.90;99.90;;;;;;5035424;28;20645;-81
2021/03/16 00:59:39;;;;;;;23.47;2.53;;;6.90;99.90;;;;;;5035680;28;20624;-80
2021/03/16 01:02:05;;;;;;;23.90;2.93;;;7.00;99.90;;;;;;5035977;28;20210;-81
2021/03/16 01:04:32;;;;;;;20.00;3.00;;;6.90;99.90;;;;;;5035407;28;20290;-81
2021/03/16 01:06:59;;;;;;;17.30;2.57;;;7.00;99.90;;;;;;5035596;28;20211;-82
2021/03/16 01:09:25;;;;;;;31.73;3.10;;;7.10;99.90;;;;;;5035218;28;20320;-81
2021/03/16 01:11:52;;;;;;;23.00;2.83;;;7.10;99.90;;;;;;5035301;28;20217;-80
2021/03/16 01:14:18;;;;;;;22.70;3.53;;;7.00;99.90;;;;;;5035060;28;20211;-83
2021/03/16 01:16:44;;;;;;;25.50;3.00;;;7.10;99.90;;;;;;5035479;28;20298;-79
2021/03/16 01:19:11;;;;;;;23.27;3.33;;;7.00;99.90;;;;;;5035237;28;20290;-80
2021/03/16 01:21:38;;;;;;;16.33;3.00;;;7.00;99.90;;;;;;5035046;28;20317;-81
2021/03/16 01:24:05;;;;;;;24.43;2.60;;;6.90;99.90;;;;;;5035146;28;20202;-79
2021/03/16 01:26:31;;;;;;;24.23;3.20;;;6.90;99.90;;;;;;5034808;28;20285;-80
2021/03/16 01:28:58;;;;;;;19.87;2.80;;;6.70;99.90;;;;;;5034971;28;20236;-83
2021/03/16 01:31:24;;;;;;;19.40;3.07;;;6.80;99.90;;;;;;5034917;28;20654;-80
2021/03/16 01:33:51;;;;;;;13.57;3.07;;;6.80;99.90;;;;;;5034818;28;20226;-80
2021/03/16 01:36:17;;;;;;;25.80;3.40;;;6.80;99.90;;;;;;5034979;28;20282;-82
2021/03/16 01:38:45;;;;;;;15.73;2.03;;;6.90;99.90;;;;;;5034441;28;20641;-82
2021/03/16 01:41:11;;;;;;;20.70;3.40;;;6.80;99.90;;;;;;5034579;28;20290;-80
2021/03/16 01:43:37;;;;;;;15.70;2.83;;;6.80;99.90;;;;;;5034826;28;20293;-81
2021/03/16 01:46:04;;;;;;;17.23;2.60;;;6.70;99.90;;;;;;5034221;28;20288;-81
2021/03/16 01:48:32;;;;;;;25.23;2.93;;;6.70;99.90;;;;;;5034565;28;20233;-81
2021/03/16 01:51:02;;;;;;;13.40;2.10;;;6.70;99.90;;;;;;5034688;28;20205;-81
2021/03/16 01:53:28;;;;;;;16.87;2.53;;;6.80;99.90;;;;;;5034244;28;20629;-80
2021/03/16 01:55:57;;;;;;;20.50;3.00;;;6.90;99.90;;;;;;5034176;28;20295;-83
2021/03/16 01:58:24;;;;;;;21.17;3.47;;;6.90;99.90;;;;;;5034434;28;20201;-81
2021/03/16 02:00:50;;;;;;;23.60;3.43;;;7.00;99.90;;;;;;5034575;28;20248;-81
2021/03/16 02:03:18;;;;;;;21.83;4.00;;;7.00;99.90;;;;;;5034579;28;20206;-79
2021/03/16 02:05:45;;;;;;;24.20;3.33;;;6.80;99.90;;;;;;5034014;28;20198;-82
2021/03/16 02:08:18;;;;;;;20.83;3.23;;;6.80;99.90;;;;;;5033884;28;20209;-82
2021/03/16 02:10:54;;;;;;;23.43;3.53;;;6.70;99.90;;;;;;5034189;28;20206;-81
2021/03/16 02:13:30;;;;;;;21.63;3.00;;;6.60;99.90;;;;;;5034037;28;20198;-80
2021/03/16 02:16:00;;;;;;;21.47;2.87;;;6.50;99.90;;;;;;5034358;28;20256;-80
2021/03/16 02:18:33;;;;;;;29.23;3.03;;;6.60;99.90;;;;;;5034138;28;20638;-81
2021/03/16 02:21:08;;;;;;;26.43;3.57;;;6.50;99.90;;;;;;5035687;28;20289;-80
2021/03/16 02:23:47;;;;;;;14.67;2.63;;;6.50;99.90;;;;;;5049616;28;20233;-81
2021/03/16 02:26:15;;;;;;;32.67;3.57;;;6.50;99.90;;;;;;5056739;28;20289;-82
2021/03/16 02:29:09;;;;;;;20.03;3.30;;;6.40;99.90;;;;;;5053584;28;20307;-80
2021/03/16 02:31:37;;;;;;;23.53;3.03;;;6.40;99.90;;;;;;5040703;28;20287;-79
2021/03/16 02:34:05;;;;;;;23.97;3.67;;;6.40;99.90;;;;;;5053930;28;20213;-80
2021/03/16 02:36:34;;;;;;;18.60;2.80;;;6.50;99.90;;;;;;5053636;28;20269;-82
2021/03/16 02:39:03;;;;;;;15.67;2.90;;;6.60;99.90;;;;;;5053734;28;20263;-82
2021/03/16 02:41:32;;;;;;;20.40;2.80;;;6.60;99.90;;;;;;5055273;28;20292;-79
2021/03/16 02:43:59;;;;;;;22.27;3.47;;;6.60;99.90;;;;;;5053816;28;20216;-81
2021/03/16 02:46:27;;;;;;;21.87;3.40;;;6.60;99.90;;;;;;5054141;28;20214;-79
2021/03/16 02:48:55;;;;;;;20.87;3.10;;;6.60;99.90;;;;;;5055835;28;20241;-78
2021/03/16 02:51:23;;;;;;;13.97;2.73;;;6.70;99.90;;;;;;5075922;28;20188;-79
2021/03/16 02:53:51;;;;;;;18.90;3.00;;;6.60;99.90;;;;;;5075351;28;20200;-81
2021/03/16 02:56:19;;;;;;;13.67;1.83;;;6.60;99.90;;;;;;5064249;28;20217;-81
2021/03/16 02:58:47;;;;;;;14.23;2.43;;;6.50;99.90;;;;;;5070439;28;20212;-80
2021/03/16 03:01:15;;;;;;;18.53;2.30;;;6.40;99.90;;;;;;5053274;28;20667;-80
2021/03/16 03:03:44;;;;;;;12.20;2.40;;;6.40;99.90;;;;;;5052808;28;20211;-82
2021/03/16 03:06:13;;;;;;;15.57;2.03;;;6.50;99.90;;;;;;5053090;28;20228;-81
2021/03/16 03:08:42;;;;;;;14.00;1.90;;;6.50;99.90;;;;;;5052818;28;20320;-83
2021/03/16 03:11:10;;;;;;;11.70;1.90;;;6.70;99.90;;;;;;5052930;28;20202;-81
2021/03/16 03:13:37;;;;;;;13.70;2.17;;;6.70;99.90;;;;;;5052733;28;20590;-82
2021/03/16 03:16:03;;;;;;;21.50;2.07;;;6.80;99.90;;;;;;5052983;28;20206;-79
2021/03/16 03:18:31;;;;;;;13.47;1.73;;;6.70;99.90;;;;;;5052852;28;20359;-81
2021/03/16 03:20:58;;;;;;;15.93;2.13;;;6.70;99.90;;;;;;5053309;28;20229;-79
2021/03/16 03:23:29;;;;;;;25.63;2.23;;;6.70;99.90;;;;;;5052717;28;20197;-80
2021/03/16 03:25:58;;;;;;;17.90;2.43;;;6.90;99.90;;;;;;5053045;28;20237;-82
2021/03/16 03:28:27;;;;;;;14.63;2.87;;;7.00;99.90;;;;;;5053063;28;20232;-81
2021/03/16 03:30:54;;;;;;;12.30;2.47;;;7.00;99.90;;;;;;5061266;28;20288;-80
2021/03/16 03:33:22;;;;;;;14.60;2.97;;;7.10;99.90;;;;;;5052640;28;20229;-80
2021/03/16 03:35:49;;;;;;;15.40;2.77;;;7.20;99.90;;;;;;5052565;28;20293;-81
2021/03/16 03:38:18;;;;;;;22.23;3.20;;;7.20;99.90;;;;;;5053089;28;20217;-80
2021/03/16 03:40:46;;;;;;;22.00;3.17;;;7.30;99.90;;;;;;5052634;28;20297;-80
2021/03/16 03:43:14;;;;;;;22.87;3.20;;;7.20;99.90;;;;;;5052675;28;20225;-80
2021/03/16 03:45:42;;;;;;;19.13;3.20;;;7.10;99.90;;;;;;5052648;28;20300;-82
2021/03/16 03:48:12;;;;;;;22.43;3.47;;;7.10;99.90;;;;;;5052533;28;20304;-80
2021/03/16 03:50:39;;;;;;;21.33;3.00;;;7.20;99.90;;;;;;5058756;28;20225;-82
2021/03/16 03:53:07;;;;;;;21.00;2.80;;;7.20;99.90;;;;;;5052340;28;20627;-82
2021/03/16 03:55:35;;;;;;;13.97;2.93;;;7.30;99.90;;;;;;5052820;28;20216;-78
2021/03/16 03:58:03;;;;;;;26.07;3.77;;;7.40;99.90;;;;;;5052489;28;20691;-81
2021/03/16 04:00:31;;;;;;;20.77;2.23;;;7.40;99.90;;;;;;5052883;28;20556;-80
2021/03/16 04:02:59;;;;;;;17.73;3.27;;;7.50;99.90;;;;;;5053349;28;20312;-80
2021/03/16 04:05:26;;;;;;;15.80;2.90;;;7.60;99.90;;;;;;5056307;28;20215;-83
2021/03/16 04:07:54;;;;;;;25.47;3.30;;;7.60;99.90;;;;;;5056599;28;20626;-83
2021/03/16 04:10:21;;;;;;;20.50;3.57;;;7.60;99.90;;;;;;5056428;28;20221;-81
2021/03/16 04:12:48;;;;;;;20.90;3.60;;;7.60;99.90;;;;;;5057005;28;20405;-79
2021/03/16 04:15:16;;;;;;;15.97;3.20;;;7.60;99.90;;;;;;5055993;28;20196;-82
2021/03/16 04:17:44;;;;;;;21.40;2.90;;;7.50;99.90;;;;;;5056543;28;20232;-78
2021/03/16 04:20:13;;;;;;;20.93;3.33;;;7.60;99.90;;;;;;5056062;28;20292;-82
2021/03/16 04:22:41;;;;;;;19.10;2.57;;;7.60;99.90;;;;;;5064734;28;20194;-82
2021/03/16 04:25:09;;;;;;;16.30;2.73;;;7.50;99.90;;;;;;5055929;28;20292;-80
2021/03/16 04:27:36;;;;;;;24.57;4.17;;;7.50;99.90;;;;;;5056193;28;20623;-83
2021/03/16 04:30:05;;;;;;;16.37;3.07;;;7.40;99.90;;;;;;5058549;28;20699;-82
2021/03/16 04:32:31;;;;;;;20.97;3.40;;;7.30;99.90;;;;;;5055632;28;20244;-81
2021/03/16 04:34:58;;;;;;;23.80;3.93;;;7.20;99.90;;;;;;5055641;28;20280;-81
2021/03/16 04:37:24;;;;;;;19.90;3.50;;;7.30;99.90;;;;;;5055500;28;20290;-80
2021/03/16 04:39:50;;;;;;;18.93;2.93;;;7.30;99.90;;;;;;5055809;28;20229;-82
2021/03/16 04:42:17;;;;;;;23.63;3.37;;;7.30;99.90;;;;;;5055704;28;20275;-81
2021/03/16 04:44:43;;;;;;;18.87;3.27;;;7.30;99.90;;;;;;5055297;28;20219;-81
2021/03/16 04:47:11;;;;;;;16.60;3.33;;;7.30;99.90;;;;;;5055823;28;20229;-81
2021/03/16 04:49:37;;;;;;;14.10;2.97;;;7.30;99.90;;;;;;5055446;28;20253;-80
2021/03/16 04:52:04;;;;;;;16.17;2.37;;;7.10;99.90;;;;;;5055366;28;20206;-82
2021/03/16 04:54:30;;;;;;;21.37;2.77;;;7.00;99.90;;;;;;5056069;28;20263;-81
2021/03/16 04:56:56;;;;;;;15.30;2.87;;;7.00;99.90;;;;;;5067619;28;20204;-83
2021/03/16 04:59:23;;;;;;;18.90;3.13;;;7.00;99.90;;;;;;5055424;28;20287;-80
2021/03/16 05:01:49;;;;;;;14.10;3.40;;;7.10;99.90;;;;;;5055672;28;20206;-81
2021/03/16 05:04:16;;;;;;;20.90;2.93;;;7.00;99.90;;;;;;5055155;28;20237;-79
2021/03/16 05:06:43;;;;;;;25.57;3.27;;;7.10;99.90;;;;;;5055026;28;20198;-79
2021/03/16 05:09:10;;;;;;;17.53;3.03;;;7.10;99.90;;;;;;5055115;28;20257;-81
2021/03/16 05:11:37;;;;;;;18.77;3.17;;;7.10;99.90;;;;;;5055324;28;20236;-80
2021/03/16 05:14:03;;;;;;;19.53;3.10;;;7.00;99.90;;;;;;5054549;28;20284;-83
2021/03/16 05:16:31;;;;;;;15.97;2.93;;;7.00;99.90;;;;;;5055271;28;20230;-81
2021/03/16 05:18:57;;;;;;;12.50;2.53;;;6.90;99.90;;;;;;5054887;28;20209;-80
2021/03/16 05:21:24;;;;;;;21.65;3.55;;;6.90;99.90;;;;;;5054779;28;20448;-84
2021/03/16 05:23:51;;;;;;;13.97;3.17;;;6.90;99.90;;;;;;5055517;28;20280;-80
2021/03/16 05:26:17;;;;;;;19.27;3.00;;;6.90;99.90;;;;;;5055494;28;20197;-82
2021/03/16 05:28:43;;;;;;;25.03;3.17;;;6.90;99.90;;;;;;5048198;28;20608;-80
2021/03/16 05:31:10;;;;;;;14.17;3.20;;;6.90;99.90;;;;;;5055010;28;20284;-81
2021/03/16 05:33:36;;;;;;;16.80;2.83;;;7.00;99.90;;;;;;5051716;28;20251;-83
2021/03/16 05:36:03;;;;;;;17.50;3.13;;;6.90;99.90;;;;;;5064697;28;20213;-83
2021/03/16 05:38:30;;;;;;;15.37;2.60;;;6.90;99.90;;;;;;5055104;28;20351;-82
2021/03/16 05:40:56;;;;;;;18.37;2.87;;;6.80;99.90;;;;;;5066175;28;20243;-80
2021/03/16 05:43:23;;;;;;;20.17;3.47;;;6.70;99.90;;;;;;5055563;28;20667;-80
2021/03/16 05:45:53;;;;;;;25.80;4.13;;;6.80;99.90;;;;;;5050676;28;20323;-82
2021/03/16 05:48:20;;;;;;;18.07;3.10;;;6.70;99.90;;;;;;5055459;28;20201;-80
2021/03/16 05:50:46;;;;;;;18.67;3.40;;;6.70;99.90;;;;;;5066541;28;20759;-81
2021/03/16 05:53:13;;;;;;;13.77;3.37;;;6.70;99.90;;;;;;5046574;28;20289;-81
2021/03/16 05:55:41;;;;;;;24.57;3.47;;;6.70;99.90;;;;;;5048400;28;20213;-81
2021/03/16 05:58:07;;;;;;;12.73;3.40;;;6.70;99.90;;;;;;5053515;28;20343;-83
2021/03/16 06:00:33;;;;;;;26.77;4.33;;;6.80;99.90;;;;;;5055853;28;20262;-82
2021/03/16 06:03:01;;;;;;;22.40;3.43;;;6.80;99.90;;;;;;5053553;28;20567;-81
2021/03/16 06:05:28;;;;;;;25.87;3.33;;;6.80;99.90;;;;;;5052490;28;20307;-80
2021/03/16 06:07:54;;;;;;;14.37;3.17;;;6.90;99.90;;;;;;5054379;28;20195;-80
2021/03/16 06:10:22;;;;;;;16.80;3.20;;;6.90;99.90;;;;;;5053884;28;20303;-82
2021/03/16 06:12:49;;;;;;;16.92;3.90;;;6.90;99.90;;;;;;5052560;28;20522;-81
2021/03/16 06:15:18;;;;;;;17.30;3.57;;;7.00;99.90;;;;;;5049277;28;20726;-79
2021/03/16 06:17:45;;;;;;;16.20;3.20;;;7.00;99.90;;;;;;5053023;28;20252;-80
2021/03/16 06:20:27;;;;;;;16.27;3.80;;;7.00;99.90;;;;;;5046686;28;20288;-79
2021/03/16 06:23:12;;;;;;;15.33;3.30;;;7.00;99.90;;;;;;5049242;28;20204;-79
2021/03/16 06:25:40;;;;;;;20.07;4.30;;;6.90;99.90;;;;;;5044355;28;20195;-80
2021/03/16 06:28:10;;;;;;;19.40;3.97;;;6.90;99.90;;;;;;5037682;28;20264;-81
2021/03/16 06:30:37;;;;;;;16.40;3.40;;;7.00;99.90;;;;;;5046951;28;20221;-81
2021/03/16 06:33:04;;;;;;;15.50;3.37;;;7.10;99.90;;;;;;5040794;28;20281;-82
2021/03/16 06:35:32;;;;;;;23.57;4.33;;;7.10;99.90;;;;;;5047023;28;20760;-80
2021/03/16 06:38:06;;;;;;;15.57;3.30;;;7.10;99.90;;;;;;5035410;28;20669;-81
2021/03/16 06:40:33;;;;;;;21.10;3.80;;;7.10;99.90;;;;;;5034300;28;20229;-78
2021/03/16 06:43:05;;;;;;;29.77;3.83;;;7.10;99.90;;;;;;5052444;28;20213;-80
2021/03/16 06:45:33;;;;;;;17.10;3.70;;;7.20;99.90;;;;;;5052848;28;20313;-80
2021/03/16 06:48:00;;;;;;;19.30;3.97;;;7.10;99.90;;;;;;5053504;28;20574;-81
2021/03/16 06:50:31;;;;;;;18.17;3.63;;;7.10;99.90;;;;;;5053106;28;20769;-80
2021/03/16 06:52:57;;;;;;;21.17;3.43;;;7.10;99.90;;;;;;5053131;28;20233;-78
2021/03/16 06:55:24;;;;;;;14.30;3.50;;;7.10;99.90;;;;;;5053032;28;20714;-78
2021/03/16 06:57:51;;;;;;;16.97;3.80;;;7.10;99.90;;;;;;5046463;28;20205;-79
2021/03/16 07:00:18;;;;;;;22.53;4.43;;;7.10;99.90;;;;;;5033045;28;20213;-80
2021/03/16 07:02:46;;;;;;;27.13;3.80;;;7.10;99.90;;;;;;5038713;28;20281;-80
2021/03/16 07:05:13;;;;;;;24.60;3.80;;;7.30;99.90;;;;;;5047920;28;20230;-82
2021/03/16 07:07:42;;;;;;;22.60;4.07;;;7.30;99.90;;;;;;5052361;28;20259;-79
2021/03/16 07:10:11;;;;;;;26.53;4.13;;;7.40;99.90;;;;;;5048052;28;20568;-75
2021/03/16 07:12:38;;;;;;;18.30;3.53;;;7.40;99.90;;;;;;5033157;28;20319;-82
2021/03/16 07:15:05;;;;;;;21.50;3.83;;;7.30;99.90;;;;;;5042602;28;20630;-82
2021/03/16 07:17:33;;;;;;;18.03;3.90;;;7.30;99.90;;;;;;5030834;28;20265;-80
2021/03/16 07:20:05;;;;;;;23.60;4.00;;;7.40;99.90;;;;;;5050920;28;20590;-80
2021/03/16 07:22:37;;;;;;;17.13;3.50;;;7.50;99.90;;;;;;5051021;28;20209;-81
2021/03/16 07:25:08;;;;;;;16.03;3.90;;;7.50;99.90;;;;;;5050857;28;20241;-81
2021/03/16 07:27:35;;;;;;;17.17;4.13;;;7.50;99.90;;;;;;5051719;28;20201;-79
2021/03/16 07:30:03;;;;;;;23.13;3.63;;;7.40;99.90;;;;;;5052897;28;20312;-80
2021/03/16 07:32:30;;;;;;;19.30;4.20;;;7.60;99.90;;;;;;5053151;28;20231;-79
2021/03/16 07:35:01;;;;;;;23.90;4.10;;;7.50;99.90;;;;;;5052900;28;20643;-82
2021/03/16 07:37:28;;;;;;;25.00;4.20;;;7.50;99.90;;;;;;5054223;28;20262;-81
2021/03/16 07:40:00;;;;;;;18.37;3.93;;;7.50;99.90;;;;;;5056820;28;20623;-82
2021/03/16 07:42:27;;;;;;;21.33;4.53;;;7.50;99.90;;;;;;5055722;28;20293;-82
2021/03/16 07:44:54;;;;;;;20.83;4.73;;;7.50;99.90;;;;;;5056486;28;20255;-79
2021/03/16 07:47:20;;;;;;;20.27;4.93;;;7.60;99.90;;;;;;5056775;28;20206;-81
2021/03/16 07:49:47;;;;;;;22.63;4.23;;;7.70;99.90;;;;;;5056626;28;20522;-81
2021/03/16 07:52:19;;;;;;;16.97;3.63;;;7.80;99.90;;;;;;5057306;28;20288;-83
2021/03/16 07:54:48;;;;;;;20.83;4.03;;;7.80;99.90;;;;;;5056498;28;20281;-81
2021/03/16 07:57:26;;;;;;;18.77;4.27;;;8.00;99.90;;;;;;5056503;28;20248;-80
2021/03/16 07:59:58;;;;;;;22.00;3.70;;;8.00;99.90;;;;;;5055885;28;20208;-80
2021/03/16 08:02:28;;;;;;;15.33;3.93;;;8.00;99.90;;;;;;5037702;28;20217;-79
2021/03/16 08:04:55;;;;;;;17.50;3.63;;;8.10;99.90;;;;;;5055470;28;20624;-80
2021/03/16 08:07:24;;;;;;;20.33;3.83;;;8.10;99.90;;;;;;5056413;28;20727;-80
2021/03/16 08:09:52;;;;;;;14.50;3.80;;;8.00;99.90;;;;;;5056440;28;20267;-82
2021/03/16 08:12:20;;;;;;;16.10;3.93;;;7.90;99.90;;;;;;5039934;28;20207;-80
2021/03/16 08:14:47;;;;;;;18.20;4.10;;;7.80;99.90;;;;;;5052816;28;20206;-81
2021/03/16 08:17:25;;;;;;;19.50;3.50;;;7.90;99.90;;;;;;5056289;28;20205;-82
2021/03/16 08:19:51;;;;;;;20.90;4.17;;;8.00;99.90;;;;;;5055838;28;20318;-79
2021/03/16 08:22:20;;;;;;;22.27;4.40;;;8.00;99.90;;;;;;5056500;28;20294;-79
2021/03/16 08:24:48;;;;;;;27.80;3.90;;;8.00;99.90;;;;;;5056333;28;20208;-79
2021/03/16 08:27:16;;;;;;;22.90;4.00;;;7.90;99.90;;;;;;5065535;28;20201;-81
2021/03/16 08:29:46;;;;;;;20.23;4.43;;;7.90;99.90;;;;;;5058539;28;20222;-81
2021/03/16 08:32:15;;;;;;;23.33;3.80;;;7.90;99.90;;;;;;5057447;28;20293;-81
2021/03/16 08:34:42;;;;;;;19.10;3.77;;;7.90;99.90;;;;;;5057694;28;20656;-81
2021/03/16 08:37:20;;;;;;;16.63;3.87;;;8.00;99.90;;;;;;5056452;28;20209;-80
2021/03/16 08:39:47;;;;;;;19.00;3.93;;;8.10;99.90;;;;;;5057020;28;20242;-80
2021/03/16 08:42:18;;;;;;;15.87;3.97;;;8.20;99.90;;;;;;5056228;28;20212;-83
2021/03/16 08:44:44;;;;;;;18.70;3.90;;;8.20;99.90;;;;;;5078334;28;20179;-81
2021/03/16 08:47:12;;;;;;;16.37;3.43;;;8.30;99.90;;;;;;5080113;28;20239;-79
2021/03/16 08:49:40;;;;;;;11.50;3.70;;;8.40;99.90;;;;;;5078951;28;20237;-79
2021/03/16 08:52:16;;;;;;;12.07;3.83;;;8.40;99.90;;;;;;5081024;28;20187;-80
2021/03/16 08:54:42;;;;;;;16.23;3.57;;;8.40;99.90;;;;;;5080284;28;20201;-80
2021/03/16 08:57:10;;;;;;;16.47;3.30;;;8.30;99.90;;;;;;5079858;28;20194;-81
2021/03/16 08:59:38;;;;;;;11.17;3.07;;;8.30;99.90;;;;;;5062396;28;20206;-82
2021/03/16 09:02:05;;;;;;;13.63;2.53;;;8.00;99.90;;;;;;5056445;28;20198;-80
2021/03/16 09:04:34;;;;;;;14.50;2.63;;;7.80;99.90;;;;;;5055938;28;20305;-79
2021/03/16 09:07:01;;;;;;;8.23;2.30;;;7.80;99.90;;;;;;5055375;28;20292;-79
2021/03/16 09:09:30;;;;;;;8.27;2.97;;;7.80;99.90;;;;;;5054666;28;20226;-81
2021/03/16 09:11:58;;;;;;;11.27;3.37;;;7.80;99.90;;;;;;5050660;28;20200;-81
2021/03/16 09:14:25;;;;;;;19.83;4.27;;;7.70;99.90;;;;;;5058486;28;20703;-81
2021/03/16 09:16:53;;;;;;;13.30;3.73;;;7.40;99.90;;;;;;5054946;28;20229;-81
2021/03/16 09:19:21;;;;;;;11.70;3.83;;;7.30;99.90;;;;;;5054817;28;20214;-79
2021/03/16 09:21:53;;;;;;;16.70;4.67;;;7.30;99.90;;;;;;5054977;28;20288;-82
2021/03/16 09:24:24;;;;;;;17.13;4.67;;;7.40;99.90;;;;;;5050915;28;20289;-79
2021/03/16 09:26:52;;;;;;;12.60;3.93;;;7.50;99.90;;;;;;5055228;28;20668;-80
2021/03/16 09:29:19;;;;;;;15.03;3.80;;;7.50;99.90;;;;;;5054989;28;20236;-80
2021/03/16 09:31:47;;;;;;;11.33;3.20;;;7.70;99.90;;;;;;5054832;28;20202;-81
2021/03/16 09:34:14;;;;;;;13.80;3.53;;;7.70;99.90;;;;;;5054647;28;20209;-79
2021/03/16 09:36:40;;;;;;;9.57;3.10;;;7.70;99.90;;;;;;5046379;28;20286;-81
2021/03/16 09:39:08;;;;;;;6.40;2.57;;;7.60;99.90;;;;;;5034530;28;20282;-79
2021/03/16 09:41:35;;;;;;;11.23;3.23;;;7.70;99.90;;;;;;5034589;28;20632;-79
2021/03/16 09:44:01;;;;;;;7.33;2.27;;;7.80;99.90;;;;;;5034488;28;20289;-81
2021/03/16 09:46:28;;;;;;;4.40;1.93;;;7.90;99.90;;;;;;5034134;28;20302;-79
2021/03/16 09:48:56;;;;;;;4.77;2.07;;;7.80;99.90;;;;;;5034313;28;20227;-80
2021/03/16 09:51:24;;;;;;;5.97;2.10;;;7.90;99.90;;;;;;5041927;28;20230;-80
2021/03/16 09:53:52;;;;;;;4.07;1.70;;;7.90;99.90;;;;;;5055029;28;20205;-80
2021/03/16 09:56:19;;;;;;;4.47;1.50;;;7.90;99.90;;;;;;5054517;28;20257;-79
2021/03/16 09:58:49;;;;;;;8.43;2.10;;;8.00;99.90;;;;;;5054363;28;20240;-80
2021/03/16 10:01:20;;;;;;;5.47;1.30;;;8.30;99.90;;;;;;5054339;28;20210;-81
2021/03/16 10:03:56;;;;;;;2.67;1.00;;;8.60;99.90;;;;;;5054222;28;20252;-81
2021/03/16 10:06:35;;;;;;;3.13;1.30;;;8.80;99.90;;;;;;5054087;28;20665;-80
2021/03/16 10:09:02;;;;;;;8.90;1.83;;;8.90;99.90;;;;;;5053903;28;20277;-80
2021/03/16 10:11:34;;;;;;;5.47;1.47;;;9.00;99.90;;;;;;5054233;28;20612;-79
2021/03/16 10:14:00;;;;;;;4.37;1.30;;;8.90;99.90;;;;;;5053734;28;20288;-80
2021/03/16 10:16:30;;;;;;;2.90;1.50;;;8.80;99.90;;;;;;5053575;28;20229;-81
2021/03/16 10:18:58;;;;;;;4.30;1.90;;;8.90;99.90;;;;;;5053075;28;20202;-81
2021/03/16 10:21:33;;;;;;;5.33;2.03;;;9.00;99.90;;;;;;5053705;28;20236;-81
2021/03/16 10:24:01;;;;;;;3.60;1.97;;;9.20;99.90;;;;;;5053674;28;20213;-78
2021/03/16 10:26:28;;;;;;;4.13;1.87;;;9.30;99.90;;;;;;5053253;28;20660;-79
2021/03/16 10:28:55;;;;;;;4.37;1.80;;;9.30;99.90;;;;;;5053285;28;20608;-80
2021/03/16 10:31:22;;;;;;;2.97;1.90;;;9.50;99.90;;;;;;5041644;28;20700;-78
2021/03/16 10:33:50;;;;;;;4.80;2.30;;;9.50;99.90;;;;;;5040083;28;20289;-80
2021/03/16 10:36:20;;;;;;;6.53;2.20;;;9.50;99.90;;;;;;5053407;28;20349;-81
2021/03/16 10:38:48;;;;;;;6.27;2.67;;;9.40;99.90;;;;;;5050031;28;20209;-80
2021/03/16 10:41:15;;;;;;;5.60;2.37;;;9.40;99.90;;;;;;5051502;28;20289;-79
2021/03/16 10:43:41;;;;;;;5.20;1.90;;;9.40;99.90;;;;;;5052430;28;20654;-79
2021/03/16 10:46:08;;;;;;;7.67;2.13;;;9.30;99.90;;;;;;5047264;28;20238;-80
2021/03/16 10:48:35;;;;;;;4.67;1.70;;;9.40;99.90;;;;;;5054129;28;20227;-79
2021/03/16 10:51:01;;;;;;;4.67;1.70;;;9.50;99.90;;;;;;5054264;28;20742;-79
2021/03/16 10:53:28;;;;;;;2.60;1.20;;;9.80;99.90;;;;;;5053581;28;20291;-78
2021/03/16 10:55:55;;;;;;;3.33;1.20;;;10.00;99.90;;;;;;5054569;28;20233;-79
2021/03/16 10:58:21;;;;;;;2.67;1.40;;;10.30;99.90;;;;;;5053490;28;20207;-81
2021/03/16 11:00:48;;;;;;;4.00;1.30;;;10.50;99.90;;;;;;5053342;28;20287;-79
2021/03/16 11:03:14;;;;;;;4.27;1.37;;;10.40;99.90;;;;;;5053527;28;20203;-79
2021/03/16 11:05:41;;;;;;;4.37;1.40;;;10.30;99.90;;;;;;5052773;28;20222;-80
2021/03/16 11:08:07;;;;;;;4.40;1.70;;;10.30;99.90;;;;;;5053454;28;20296;-79
2021/03/16 11:10:34;;;;;;;2.47;1.30;;;10.10;99.90;;;;;;5052349;28;20662;-79
2021/03/16 11:13:01;;;;;;;2.03;1.17;;;9.90;99.90;;;;;;5052629;28;20203;-79
2021/03/16 11:15:27;;;;;;;2.80;1.40;;;9.80;99.90;;;;;;5053266;28;20199;-79
2021/03/16 11:17:54;;;;;;;3.60;1.50;;;9.70;99.90;;;;;;5052746;28;20598;-81
2021/03/16 11:20:20;;;;;;;3.20;1.40;;;9.80;99.90;;;;;;5049169;28;20402;-79
2021/03/16 11:22:47;;;;;;;3.80;1.20;;;9.90;99.90;;;;;;5052825;28;20246;-80
2021/03/16 11:25:14;;;;;;;4.47;1.60;;;9.90;99.90;;;;;;5036922;28;20299;-78
2021/03/16 11:27:41;;;;;;;2.20;1.10;;;9.70;99.90;;;;;;5037778;28;20342;-78
2021/03/16 11:30:09;;;;;;;2.23;0.73;;;9.60;99.90;;;;;;5049381;28;20254;-82
2021/03/16 11:32:36;;;;;;;5.03;1.13;;;9.50;99.90;;;;;;5048600;28;20664;-79
2021/03/16 11:35:04;;;;;;;3.73;1.33;;;9.40;99.90;;;;;;5052021;28;20210;-79
2021/03/16 11:37:31;;;;;;;3.67;1.00;;;9.40;99.90;;;;;;5052556;28;20289;-80
2021/03/16 11:39:57;;;;;;;4.60;1.03;;;9.50;99.90;;;;;;5052252;28;20204;-78
2021/03/16 11:42:24;;;;;;;5.77;1.50;;;9.40;99.90;;;;;;5052686;28;20227;-79
2021/03/16 11:44:51;;;;;;;4.07;1.30;;;9.30;99.90;;;;;;5052458;28;20223;-80
2021/03/16 11:47:17;;;;;;;2.50;0.93;;;9.30;99.90;;;;;;5052034;28;20677;-79
2021/03/16 11:49:44;;;;;;;1.50;0.90;;;9.30;99.90;;;;;;5051324;28;20738;-79
2021/03/16 11:52:10;;;;;;;2.40;1.20;;;9.30;99.90;;;;;;5038543;28;20293;-79
2021/03/16 11:54:37;;;;;;;5.53;1.10;;;9.30;99.90;;;;;;5030882;28;20207;-80
2021/03/16 11:57:03;;;;;;;2.83;1.00;;;9.20;99.90;;;;;;5031755;28;20226;-78
2021/03/16 11:59:30;;;;;;;4.00;1.30;;;9.10;99.90;;;;;;5032462;28;20242;-79
2021/03/16 12:01:57;;;;;;;5.00;1.10;;;9.00;99.90;;;;;;5032688;28;20285;-80
2021/03/16 12:04:25;;;;;;;2.47;1.20;;;9.10;99.90;;;;;;5032158;28;20718;-79
2021/03/16 12:06:52;;;;;;;1.87;1.23;;;9.00;99.90;;;;;;5032385;28;20210;-77
2021/03/16 12:09:19;;;;;;;4.27;1.27;;;9.10;99.90;;;;;;5031957;28;21082;-78
2021/03/16 12:11:45;;;;;;;2.63;1.27;;;9.20;99.90;;;;;;5032194;28;20226;-78
2021/03/16 12:14:12;;;;;;;8.47;2.00;;;9.40;99.90;;;;;;5032167;28;20294;-78
2021/03/16 12:16:38;;;;;;;4.87;1.60;;;9.50;99.90;;;;;;5044582;28;20681;-81
2021/03/16 12:19:06;;;;;;;5.03;1.70;;;9.50;99.90;;;;;;5047821;28;20277;-79
2021/03/16 12:21:32;;;;;;;4.47;1.70;;;9.30;99.90;;;;;;5032009;28;20665;-80
2021/03/16 12:24:02;;;;;;;4.33;1.63;;;9.40;99.90;;;;;;5039543;28;20288;-80
2021/03/16 12:26:30;;;;;;;4.67;1.87;;;9.30;99.90;;;;;;5046800;28;20193;-81
2021/03/16 12:29:01;;;;;;;5.97;1.80;;;9.30;99.90;;;;;;5056138;28;20246;-81
2021/03/16 12:31:28;;;;;;;6.03;1.60;;;9.50;99.90;;;;;;5042907;28;20245;-82
2021/03/16 12:33:56;;;;;;;6.37;1.60;;;9.60;99.90;;;;;;5055334;28;20656;-80
2021/03/16 12:36:23;;;;;;;3.17;1.57;;;9.50;99.90;;;;;;5044205;28;20238;-80
2021/03/16 12:38:49;;;;;;;6.10;1.70;;;9.40;99.90;;;;;;5040265;28;20305;-80
2021/03/16 12:41:16;;;;;;;2.53;1.83;;;9.50;99.90;;;;;;5044505;28;20285;-80
2021/03/16 12:43:42;;;;;;;2.97;1.93;;;9.50;99.90;;;;;;5047277;28;20651;-83
2021/03/16 12:46:09;;;;;;;4.73;1.70;;;9.60;99.90;;;;;;5052545;28;20971;-80
2021/03/16 12:48:35;;;;;;;5.53;1.77;;;9.50;99.90;;;;;;5055819;28;20338;-79
2021/03/16 12:51:02;;;;;;;3.00;1.80;;;9.50;99.90;;;;;;5055171;28;20313;-80
2021/03/16 12:53:29;;;;;;;3.67;2.13;;;9.40;99.90;;;;;;5055669;28;20287;-80